Time;durP1;ratioP1;P1;durP2;ratioP2;P2;SDS_P1;SDS_P2;PMS_P1;PMS_P2;Temp;Humidity;BMP_temperature;BMP_pressure;BME280_temperature;BME280_humidity;BME280_pressure;Samples;Min_cycle;Max_cycle;Signal;HPM_P1;HPM_P2
2023/06/06 00:01:36;;;;;;;11.05;4.90;;;;;;;14.83;68.70;102201.94;7386722;19;20043;-60
2023/06/06 00:04:03;;;;;;;11.18;4.93;;;;;;;14.78;68.77;102204.91;7387479;19;20023;-60
2023/06/06 00:06:33;;;;;;;10.85;4.40;;;;;;;14.74;69.12;102198.09;7389278;19;20033;-60
2023/06/06 00:09:05;;;;;;;9.45;4.38;;;;;;;14.80;68.61;102202.97;7395514;19;20022;-60
2023/06/06 00:11:36;;;;;;;10.30;4.75;;;;;;;14.70;69.34;102203.72;7392201;19;20018;-60
2023/06/06 00:14:06;;;;;;;12.30;4.82;;;;;;;14.73;68.99;102196.38;7392686;19;20022;-60
2023/06/06 00:16:34;;;;;;;8.50;4.85;;;;;;;14.74;69.05;102192.75;7395023;19;20018;-60
2023/06/06 00:19:03;;;;;;;10.98;4.63;;;;;;;14.67;69.16;102196.78;7396217;19;20022;-60
2023/06/06 00:21:36;;;;;;;9.38;4.65;;;;;;;14.58;69.57;102194.75;7395358;19;20010;-60
2023/06/06 00:24:03;;;;;;;10.52;4.68;;;;;;;14.63;69.38;102203.28;7393595;19;20022;-60
2023/06/06 00:26:30;;;;;;;13.15;5.00;;;;;;;14.70;69.13;102198.41;7396474;19;20015;-60
2023/06/06 00:28:57;;;;;;;10.82;4.90;;;;;;;14.68;69.12;102201.16;7395806;19;20502;-60
2023/06/06 00:31:25;;;;;;;10.82;4.47;;;;;;;14.67;69.01;102201.28;7393246;19;20015;-59
2023/06/06 00:33:52;;;;;;;11.88;4.90;;;;;;;14.61;69.27;102202.53;7392064;19;20038;-59
2023/06/06 00:36:20;;;;;;;10.57;4.60;;;;;;;14.49;69.83;102200.66;7396116;19;20037;-59
2023/06/06 00:38:47;;;;;;;10.30;4.93;;;;;;;14.55;69.62;102194.97;7395977;19;20037;-60
2023/06/06 00:41:14;;;;;;;10.65;4.90;;;;;;;14.64;69.16;102194.31;7393784;19;20022;-59
2023/06/06 00:43:43;;;;;;;8.95;4.53;;;;;;;14.61;69.21;102195.41;7393315;19;20453;-59
2023/06/06 00:46:13;;;;;;;11.48;5.28;;;;;;;14.61;69.15;102194.53;7395567;19;20047;-59
2023/06/06 00:48:41;;;;;;;11.00;5.22;;;;;;;14.53;69.44;102191.53;7394808;19;20022;-59
2023/06/06 00:51:09;;;;;;;10.80;4.75;;;;;;;14.58;69.29;102189.44;7391674;19;20102;-60
2023/06/06 00:53:37;;;;;;;12.45;5.20;;;;;;;14.63;69.04;102192.63;7393163;19;20027;-59
2023/06/06 00:56:06;;;;;;;10.65;5.03;;;;;;;14.52;69.23;102193.34;7395703;19;20026;-60
2023/06/06 00:58:34;;;;;;;9.73;4.80;;;;;;;14.52;69.50;102189.81;7393369;19;20018;-60
2023/06/06 01:01:04;;;;;;;11.27;4.95;;;;;;;14.43;69.45;102191.28;7394739;19;20137;-62
2023/06/06 01:03:34;;;;;;;9.65;5.05;;;;;;;14.39;69.79;102179.97;7392662;19;20374;-61
2023/06/06 01:06:02;;;;;;;12.02;4.93;;;;;;;14.42;69.76;102188.69;7395570;19;20413;-60
2023/06/06 01:08:29;;;;;;;10.68;4.65;;;;;;;14.41;69.83;102187.00;7394555;19;20033;-59
2023/06/06 01:11:06;;;;;;;11.18;4.72;;;;;;;14.48;69.54;102182.97;7392639;19;20018;-58
2023/06/06 01:13:54;;;;;;;10.90;4.88;;;;;;;14.45;69.61;102185.81;7392608;19;20074;-59
2023/06/06 01:16:22;;;;;;;11.13;4.85;;;;;;;14.33;69.94;102183.03;7394419;19;20022;-59
2023/06/06 01:18:52;;;;;;;9.45;4.88;;;;;;;14.35;69.86;102181.13;7392409;19;20018;-59
2023/06/06 01:21:20;;;;;;;12.52;5.20;;;;;;;14.35;69.68;102183.78;7393091;19;20031;-63
2023/06/06 01:23:47;;;;;;;10.93;4.65;;;;;;;14.33;69.93;102171.50;7392380;19;20019;-63
2023/06/06 01:26:14;;;;;;;10.80;4.90;;;;;;;14.30;70.01;102175.22;7392915;19;20058;-63
2023/06/06 01:28:41;;;;;;;10.48;4.82;;;;;;;14.34;69.66;102175.88;7394042;19;20086;-62
2023/06/06 01:31:14;;;;;;;9.35;4.63;;;;;;;14.09;70.51;102179.31;7392174;19;20018;-62
2023/06/06 01:33:46;;;;;;;11.02;4.80;;;;;;;14.15;70.67;102184.22;7392632;19;20375;-62
2023/06/06 01:36:22;;;;;;;10.82;5.00;;;;;;;14.26;70.20;102181.72;7394385;19;20367;-62
2023/06/06 01:38:59;;;;;;;10.52;5.05;;;;;;;14.30;69.97;102177.03;7391956;19;20015;-62
2023/06/06 01:41:29;;;;;;;12.65;5.20;;;;;;;14.30;69.81;102180.56;7391314;19;20495;-62
2023/06/06 01:43:58;;;;;;;11.25;4.85;;;;;;;14.22;70.20;102174.88;7391324;19;20078;-60
2023/06/06 01:46:26;;;;;;;11.15;5.03;;;;;;;14.26;70.10;102175.53;7391532;19;20035;-59
2023/06/06 01:48:54;;;;;;;10.27;5.40;;;;;;;14.01;70.72;102176.31;7393158;19;20019;-59
2023/06/06 01:51:25;;;;;;;10.23;4.82;;;;;;;13.78;71.66;102183.97;7391270;19;20038;-59
2023/06/06 01:53:54;;;;;;;11.80;5.45;;;;;;;13.71;72.23;102187.13;7392048;19;20419;-59
2023/06/06 01:56:23;;;;;;;10.35;5.53;;;;;;;13.71;71.94;102187.13;7391337;19;20019;-59
2023/06/06 01:58:50;;;;;;;11.80;5.43;;;;;;;13.65;72.39;102173.25;7393484;19;20027;-59
2023/06/06 02:01:17;;;;;;;11.27;5.20;;;;;;;13.73;72.33;102177.22;7390669;19;20108;-59
2023/06/06 02:03:45;;;;;;;10.20;5.38;;;;;;;13.86;71.98;102184.34;7389201;19;20018;-58
2023/06/06 02:06:12;;;;;;;11.88;5.80;;;;;;;13.79;71.84;102187.50;7392661;19;20086;-57
2023/06/06 02:08:39;;;;;;;10.90;5.63;;;;;;;13.83;71.82;102184.53;7392530;19;20046;-57
2023/06/06 02:11:07;;;;;;;11.05;5.50;;;;;;;13.63;72.25;102184.97;7391346;19;20022;-57
2023/06/06 02:13:34;;;;;;;12.80;5.72;;;;;;;13.52;72.57;102185.63;7391236;19;20047;-58
2023/06/06 02:16:02;;;;;;;10.98;5.68;;;;;;;13.43;73.32;102188.84;7392248;19;20586;-57
2023/06/06 02:18:30;;;;;;;10.43;5.40;;;;;;;13.76;71.91;102183.22;7392274;19;20047;-59
2023/06/06 02:20:57;;;;;;;11.55;5.45;;;;;;;13.69;72.12;102183.72;7391600;19;20015;-61
2023/06/06 02:23:24;;;;;;;12.60;5.97;;;;;;;13.46;73.09;102180.69;7391155;19;20368;-61
2023/06/06 02:25:53;;;;;;;10.55;5.82;;;;;;;13.49;72.73;102179.66;7390412;19;20081;-60
2023/06/06 02:28:20;;;;;;;10.75;5.63;;;;;;;13.58;72.76;102174.63;7391761;19;20018;-61
2023/06/06 02:30:47;;;;;;;11.10;5.55;;;;;;;13.62;72.39;102188.56;7389048;19;20094;-58
2023/06/06 02:33:16;;;;;;;10.68;5.75;;;;;;;13.51;72.63;102180.44;7390939;19;20043;-58
2023/06/06 02:35:43;;;;;;;12.60;6.32;;;;;;;13.57;72.87;102182.69;7392142;19;20014;-56
2023/06/06 02:38:11;;;;;;;11.40;5.93;;;;;;;13.44;72.97;102179.94;7391403;19;20093;-57
2023/06/06 02:40:38;;;;;;;12.25;5.97;;;;;;;13.37;73.61;102179.47;7390562;19;20014;-57
2023/06/06 02:43:05;;;;;;;10.38;5.80;;;;;;;13.53;73.24;102176.69;7390675;19;20467;-59
2023/06/06 02:45:32;;;;;;;19.80;6.13;;;;;;;13.64;72.45;102179.53;7391441;19;20010;-59
2023/06/06 02:48:00;;;;;;;11.05;6.05;;;;;;;13.71;72.31;102177.34;7391524;19;20038;-59
2023/06/06 02:50:28;;;;;;;12.55;5.95;;;;;;;13.67;72.39;102180.31;7390771;19;20046;-59
2023/06/06 02:52:55;;;;;;;11.00;5.88;;;;;;;13.79;71.90;102175.03;7390595;19;20040;-59
2023/06/06 02:55:22;;;;;;;12.75;5.68;;;;;;;13.82;71.70;102179.31;7389525;19;20022;-59
2023/06/06 02:57:50;;;;;;;10.90;5.68;;;;;;;13.88;71.48;102179.75;7390795;19;20130;-60
2023/06/06 03:00:17;;;;;;;13.13;5.60;;;;;;;13.83;71.49;102179.22;7390771;19;20028;-59
2023/06/06 03:02:44;;;;;;;11.57;6.40;;;;;;;13.57;72.49;102180.03;7390281;19;20039;-59
2023/06/06 03:05:13;;;;;;;11.52;6.47;;;;;;;13.39;73.06;102171.38;7390840;19;20018;-59
2023/06/06 03:07:40;;;;;;;10.70;6.25;;;;;;;13.43;73.60;102169.38;7390973;19;20018;-58
2023/06/06 03:10:08;;;;;;;12.90;5.90;;;;;;;13.65;72.55;102181.22;7390955;19;20026;-58
2023/06/06 03:12:35;;;;;;;11.70;5.53;;;;;;;13.75;72.29;102178.84;7388847;19;20043;-59
2023/06/06 03:15:03;;;;;;;10.95;5.78;;;;;;;13.78;72.22;102180.47;7389009;19;20014;-60
2023/06/06 03:17:30;;;;;;;12.13;5.80;;;;;;;13.77;72.04;102174.25;7388955;19;20033;-59
2023/06/06 03:19:57;;;;;;;10.90;5.75;;;;;;;13.78;72.02;102183.13;7390362;19;20352;-60
2023/06/06 03:22:25;;;;;;;12.55;6.57;;;;;;;13.62;72.74;102177.91;7389927;19;20029;-60
2023/06/06 03:24:52;;;;;;;12.63;6.28;;;;;;;13.57;72.77;102180.88;7390292;19;20047;-60
2023/06/06 03:27:19;;;;;;;11.45;6.22;;;;;;;13.71;72.43;102182.66;7390616;19;20015;-59
2023/06/06 03:29:46;;;;;;;12.15;6.00;;;;;;;13.70;72.39;102180.97;7389653;19;20026;-59
2023/06/06 03:32:13;;;;;;;11.63;5.68;;;;;;;13.76;72.38;102179.69;7388069;19;20117;-58
2023/06/06 03:34:41;;;;;;;11.88;5.72;;;;;;;13.81;72.27;102190.91;7389803;19;20022;-59
2023/06/06 03:37:08;;;;;;;11.55;5.97;;;;;;;13.82;72.52;102189.97;7388698;19;20025;-60
2023/06/06 03:39:36;;;;;;;11.82;5.90;;;;;;;13.86;72.24;102188.81;7390395;19;20043;-60
2023/06/06 03:42:07;;;;;;;12.07;5.93;;;;;;;13.85;72.18;102192.41;7393645;19;20014;-59
2023/06/06 03:44:34;;;;;;;14.60;6.65;;;;;;;13.84;72.43;102188.03;7397428;19;20479;-59
2023/06/06 03:47:01;;;;;;;12.43;6.45;;;;;;;13.79;72.63;102188.34;7397370;19;20054;-59
2023/06/06 03:49:35;;;;;;;14.00;6.60;;;;;;;13.89;72.51;102185.97;7397536;19;20011;-58
2023/06/06 03:52:04;;;;;;;12.65;6.18;;;;;;;13.90;72.19;102185.00;7394679;19;20015;-58
2023/06/06 03:54:32;;;;;;;14.35;6.72;;;;;;;13.93;72.31;102187.47;7396011;19;20053;-58
2023/06/06 03:57:00;;;;;;;11.25;5.43;;;;;;;13.93;72.44;102183.94;7395180;19;20023;-58
2023/06/06 03:59:28;;;;;;;14.43;6.47;;;;;;;13.95;72.43;102187.34;7397093;19;20027;-58
2023/06/06 04:01:55;;;;;;;12.85;6.47;;;;;;;13.80;73.21;102187.38;7395736;19;20055;-58
2023/06/06 04:04:24;;;;;;;12.07;6.25;;;;;;;13.86;73.20;102191.47;7397187;19;20015;-58
2023/06/06 04:06:51;;;;;;;13.13;7.10;;;;;;;13.87;73.09;102190.53;7396715;19;20017;-58
2023/06/06 04:09:18;;;;;;;12.50;6.93;;;;;;;13.82;73.54;102192.63;7397007;19;20074;-58
2023/06/06 04:11:45;;;;;;;11.88;6.68;;;;;;;13.95;73.22;102195.34;7395017;19;20015;-58
2023/06/06 04:14:13;;;;;;;15.50;6.95;;;;;;;13.99;73.06;102196.84;7393951;19;20018;-59
2023/06/06 04:16:41;;;;;;;13.77;6.95;;;;;;;14.03;72.82;102196.56;7396017;19;20043;-58
2023/06/06 04:19:08;;;;;;;14.23;6.82;;;;;;;14.03;73.13;102193.03;7396317;19;20018;-59
2023/06/06 04:21:36;;;;;;;11.52;6.90;;;;;;;13.98;73.27;102196.00;7395201;19;20014;-59
2023/06/06 04:24:03;;;;;;;13.20;6.90;;;;;;;14.02;73.29;102199.31;7394134;19;20015;-59
2023/06/06 04:26:34;;;;;;;14.90;7.78;;;;;;;13.98;73.53;102198.66;7396309;19;20022;-60
2023/06/06 04:29:02;;;;;;;13.95;7.13;;;;;;;14.02;73.54;102202.00;7396903;19;20030;-59
2023/06/06 04:31:29;;;;;;;14.57;7.15;;;;;;;14.08;73.35;102202.44;7394281;19;20052;-59
2023/06/06 04:34:01;;;;;;;12.82;7.45;;;;;;;14.04;73.57;102205.41;7394308;19;20029;-58
2023/06/06 04:36:28;;;;;;;13.55;6.57;;;;;;;13.97;73.90;102201.44;7395412;19;20022;-58
2023/06/06 04:39:00;;;;;;;15.32;7.18;;;;;;;14.01;74.24;102198.47;7393995;19;20018;-58
2023/06/06 04:41:31;;;;;;;14.35;6.90;;;;;;;14.01;74.10;102205.63;7395007;19;20035;-59
2023/06/06 04:44:20;;;;;;;12.63;6.65;;;;;;;13.99;74.51;102196.84;7392624;19;20018;-58
2023/06/06 04:46:48;;;;;;;11.13;6.90;;;;;;;14.03;74.23;102199.22;7393638;19;20088;-58
2023/06/06 04:49:15;;;;;;;13.32;6.78;;;;;;;14.10;74.33;102205.84;7395454;19;20025;-58
2023/06/06 04:51:43;;;;;;;11.35;7.03;;;;;;;14.26;73.62;102197.69;7393148;19;20014;-58
2023/06/06 04:54:10;;;;;;;12.80;7.22;;;;;;;14.26;73.57;102194.19;7391046;19;20029;-58
2023/06/06 04:56:38;;;;;;;11.43;7.25;;;;;;;14.28;73.87;102195.81;7394989;19;20014;-58
2023/06/06 04:59:06;;;;;;;11.48;7.32;;;;;;;14.35;73.52;102190.94;7395089;19;20051;-58
2023/06/06 05:01:41;;;;;;;11.85;7.18;;;;;;;14.37;73.62;102189.84;7394357;19;20018;-58
2023/06/06 05:04:08;;;;;;;13.13;7.22;;;;;;;14.29;74.09;102192.19;7392467;19;20022;-58
2023/06/06 05:06:35;;;;;;;11.80;7.20;;;;;;;14.39;73.69;102185.28;7393235;19;20043;-59
2023/06/06 05:09:07;;;;;;;13.77;7.80;;;;;;;14.45;73.59;102193.81;7394419;19;20025;-59
2023/06/06 05:11:34;;;;;;;12.82;8.15;;;;;;;14.48;73.55;102185.63;7393284;19;20129;-58
2023/06/06 05:14:02;;;;;;;14.10;7.90;;;;;;;14.54;73.48;102190.59;7392295;19;20023;-59
2023/06/06 05:16:30;;;;;;;13.90;8.30;;;;;;;14.43;73.84;102193.94;7394226;19;20074;-59
2023/06/06 05:18:57;;;;;;;15.35;8.70;;;;;;;14.41;74.29;102195.00;7394294;19;20018;-58
2023/06/06 05:21:25;;;;;;;14.25;8.68;;;;;;;14.46;74.22;102195.53;7394005;19;20050;-58
2023/06/06 05:23:53;;;;;;;14.02;7.97;;;;;;;14.52;74.08;102197.81;7391911;19;20041;-58
2023/06/06 05:26:20;;;;;;;12.95;8.38;;;;;;;14.52;74.06;102192.50;7393682;19;20043;-58
2023/06/06 05:28:48;;;;;;;14.38;9.27;;;;;;;14.59;73.89;102191.13;7394147;19;20093;-57
2023/06/06 05:31:20;;;;;;;15.93;9.30;;;;;;;14.64;73.75;102189.00;7391416;19;20055;-58
2023/06/06 05:33:48;;;;;;;15.50;9.20;;;;;;;14.67;73.94;102203.94;7392814;19;20041;-58
2023/06/06 05:36:15;;;;;;;14.55;8.43;;;;;;;14.71;73.85;102195.63;7393751;19;20267;-58
2023/06/06 05:38:42;;;;;;;15.63;9.85;;;;;;;14.80;73.58;102192.31;7391867;19;20010;-58
2023/06/06 05:41:13;;;;;;;18.02;8.80;;;;;;;14.86;73.63;102193.72;7393165;19;20043;-57
2023/06/06 05:43:44;;;;;;;13.60;8.93;;;;;;;14.91;73.32;102194.25;7391556;19;20031;-61
2023/06/06 05:46:13;;;;;;;14.63;9.30;;;;;;;14.77;73.76;102197.03;7393650;19;20416;-62
2023/06/06 05:48:41;;;;;;;14.10;8.98;;;;;;;14.80;74.00;102192.31;7393395;19;20019;-59
2023/06/06 05:51:08;;;;;;;13.30;9.05;;;;;;;14.85;73.79;102200.88;7392482;19;20022;-60
2023/06/06 05:53:46;;;;;;;16.38;9.80;;;;;;;14.91;73.77;102202.25;7389474;19;20018;-63
2023/06/06 05:56:16;;;;;;;14.93;8.98;;;;;;;14.88;74.00;102197.13;7393451;19;20018;-61
2023/06/06 05:58:52;;;;;;;16.95;9.32;;;;;;;14.91;74.11;102196.91;7392450;19;20034;-61
2023/06/06 06:01:21;;;;;;;16.30;9.25;;;;;;;14.99;73.88;102201.72;7391578;19;20026;-59
2023/06/06 06:03:48;;;;;;;16.55;8.65;;;;;;;15.04;73.75;102200.47;7388817;19;20043;-61
2023/06/06 06:06:16;;;;;;;15.02;9.05;;;;;;;15.14;73.36;102198.00;7391189;19;20015;-60
2023/06/06 06:08:44;;;;;;;15.93;8.98;;;;;;;15.15;73.40;102201.50;7390785;19;20018;-60
2023/06/06 06:11:14;;;;;;;14.90;8.88;;;;;;;15.15;73.36;102205.06;7392023;19;20022;-59
2023/06/06 06:13:41;;;;;;;17.20;8.88;;;;;;;15.22;73.40;102203.63;7389889;19;20105;-60
2023/06/06 06:16:09;;;;;;;21.05;9.48;;;;;;;15.29;73.24;102201.41;7392453;19;20042;-60
2023/06/06 06:18:36;;;;;;;14.70;8.95;;;;;;;15.31;73.48;102205.69;7392628;19;20032;-60
2023/06/06 06:21:03;;;;;;;17.63;8.68;;;;;;;15.30;73.50;102203.97;7390604;19;20022;-61
2023/06/06 06:23:30;;;;;;;14.57;8.15;;;;;;;15.42;73.11;102201.41;7392480;19;20514;-61
2023/06/06 06:25:58;;;;;;;16.60;8.65;;;;;;;15.49;73.03;102199.97;7391748;19;20014;-60
2023/06/06 06:28:25;;;;;;;14.40;7.95;;;;;;;15.46;73.24;102211.75;7391062;19;20467;-60
2023/06/06 06:30:52;;;;;;;16.27;9.18;;;;;;;15.39;73.35;102199.78;7389541;19;20030;-60
2023/06/06 06:33:22;;;;;;;17.40;8.68;;;;;;;15.41;73.20;102207.69;7389695;19;20030;-60
2023/06/06 06:35:49;;;;;;;14.65;7.68;;;;;;;15.51;73.24;102212.25;7390082;19;20021;-60
2023/06/06 06:38:16;;;;;;;14.90;8.10;;;;;;;15.62;72.81;102208.00;7391320;19;20022;-60
2023/06/06 06:40:44;;;;;;;15.70;8.68;;;;;;;15.65;72.98;102208.66;7389002;19;20023;-60
2023/06/06 06:43:11;;;;;;;16.83;8.98;;;;;;;15.68;72.59;102203.09;7390326;19;20018;-60
2023/06/06 06:45:38;;;;;;;14.65;8.30;;;;;;;15.65;72.58;102216.66;7389160;19;20030;-61
2023/06/06 06:48:05;;;;;;;15.93;8.63;;;;;;;15.70;72.71;102202.97;7391395;19;20254;-60
2023/06/06 06:50:33;;;;;;;15.68;8.23;;;;;;;15.75;72.79;102201.66;7388537;19;20094;-60
2023/06/06 06:53:04;;;;;;;16.15;8.27;;;;;;;15.86;72.37;102213.41;7390165;19;20043;-60
2023/06/06 06:55:34;;;;;;;12.40;7.88;;;;;;;15.89;72.51;102207.84;7390115;19;20070;-60
2023/06/06 06:58:02;;;;;;;15.80;7.95;;;;;;;15.94;72.44;102208.34;7391283;19;20018;-60
2023/06/06 07:00:29;;;;;;;15.75;7.82;;;;;;;15.97;72.46;102208.13;7390707;19;20018;-60
2023/06/06 07:02:57;;;;;;;14.60;7.65;;;;;;;16.03;72.00;102210.38;7387999;19;20014;-60
2023/06/06 07:05:25;;;;;;;14.18;8.10;;;;;;;16.05;71.84;102211.94;7390689;19;20182;-60
2023/06/06 07:07:54;;;;;;;15.40;8.23;;;;;;;16.08;71.70;102206.38;7390564;19;20022;-63
2023/06/06 07:10:23;;;;;;;12.77;7.70;;;;;;;16.12;71.51;102212.34;7388764;19;20019;-60
2023/06/06 07:12:51;;;;;;;12.73;7.75;;;;;;;16.18;71.51;102213.69;7389400;19;20043;-60
2023/06/06 07:15:20;;;;;;;17.25;7.85;;;;;;;16.25;71.18;102214.94;7389311;19;20035;-60
2023/06/06 07:17:49;;;;;;;13.23;7.00;;;;;;;16.31;71.38;102222.53;7388985;19;20060;-58
2023/06/06 07:20:21;;;;;;;16.40;7.65;;;;;;;16.37;71.19;102215.84;7389836;19;20018;-59
2023/06/06 07:22:50;;;;;;;14.10;8.00;;;;;;;16.38;71.08;102217.59;7388478;19;20022;-59
2023/06/06 07:25:17;;;;;;;15.00;7.60;;;;;;;16.44;70.74;102206.41;7390282;19;20025;-59
2023/06/06 07:27:45;;;;;;;15.15;7.93;;;;;;;16.49;70.44;102212.28;7389995;19;20022;-59
2023/06/06 07:30:12;;;;;;;16.27;7.93;;;;;;;16.54;70.52;102210.97;7387922;19;20020;-59
2023/06/06 07:32:44;;;;;;;14.20;7.60;;;;;;;16.58;70.29;102212.44;7388401;19;20033;-59
2023/06/06 07:35:13;;;;;;;14.48;7.57;;;;;;;16.64;70.00;102207.59;7389691;19;20069;-59
2023/06/06 07:37:40;;;;;;;16.38;7.85;;;;;;;16.65;70.12;102215.50;7389248;19;20022;-59
2023/06/06 07:40:09;;;;;;;15.35;7.40;;;;;;;16.70;69.88;102212.47;7390005;19;20014;-59
2023/06/06 07:42:40;;;;;;;16.15;7.22;;;;;;;16.76;69.30;102204.88;7387873;19;20051;-59
2023/06/06 07:45:08;;;;;;;14.70;7.82;;;;;;;16.85;69.26;102199.78;7388308;19;20892;-60
2023/06/06 07:47:36;;;;;;;16.25;7.32;;;;;;;16.88;69.08;102204.91;7388835;19;20014;-59
2023/06/06 07:50:03;;;;;;;15.55;7.00;;;;;;;16.92;68.86;102204.53;7389465;19;20022;-59
2023/06/06 07:52:32;;;;;;;15.27;6.95;;;;;;;16.99;68.73;102200.41;7387981;19;20022;-60
2023/06/06 07:55:00;;;;;;;15.13;7.13;;;;;;;17.04;68.42;102200.03;7389738;19;20018;-59
2023/06/06 07:57:30;;;;;;;16.92;7.40;;;;;;;17.10;68.28;102201.41;7389617;19;20018;-59
2023/06/06 07:59:58;;;;;;;12.05;6.78;;;;;;;17.15;68.44;102204.56;7389909;19;20022;-59
2023/06/06 08:02:26;;;;;;;13.82;7.25;;;;;;;17.23;67.99;102199.47;7386513;19;20486;-59
2023/06/06 08:04:53;;;;;;;13.75;7.05;;;;;;;17.27;67.56;102199.09;7388804;19;20040;-59
2023/06/06 08:07:21;;;;;;;16.58;7.78;;;;;;;17.33;67.48;102202.28;7389353;19;20070;-59
2023/06/06 08:09:48;;;;;;;14.93;6.85;;;;;;;17.36;67.58;102199.31;7388402;19;20036;-59
2023/06/06 08:12:15;;;;;;;12.05;6.68;;;;;;;17.40;67.19;102199.00;7386084;19;20426;-59
2023/06/06 08:14:43;;;;;;;16.13;7.60;;;;;;;17.43;67.16;102193.38;7388422;19;20015;-59
2023/06/06 08:17:10;;;;;;;15.70;7.60;;;;;;;17.51;67.02;102196.31;7389130;19;20014;-59
2023/06/06 08:19:38;;;;;;;11.50;7.35;;;;;;;17.57;66.56;102200.31;7386621;19;20086;-59
2023/06/06 08:22:06;;;;;;;13.63;7.03;;;;;;;17.64;66.37;102189.97;7387841;19;20047;-60
2023/06/06 08:24:33;;;;;;;15.60;6.50;;;;;;;17.69;66.57;102195.78;7388951;19;20022;-59
2023/06/06 08:27:00;;;;;;;13.02;7.32;;;;;;;17.76;66.02;102189.84;7388584;19;20057;-60
2023/06/06 08:29:28;;;;;;;13.80;6.57;;;;;;;17.83;65.86;102192.03;7395401;19;20022;-60
2023/06/06 08:31:55;;;;;;;12.15;6.15;;;;;;;17.87;65.37;102190.81;7394494;19;20025;-58
2023/06/06 08:34:23;;;;;;;15.18;6.45;;;;;;;17.88;64.80;102187.13;7393041;19;20010;-60
2023/06/06 08:36:50;;;;;;;11.88;5.63;;;;;;;17.95;64.89;102188.34;7393732;19;20312;-60
2023/06/06 08:39:18;;;;;;;11.48;5.85;;;;;;;18.00;64.27;102186.13;7395522;19;20078;-59
2023/06/06 08:41:56;;;;;;;12.70;6.13;;;;;;;18.02;63.94;102181.50;7391964;19;20026;-60
2023/06/06 08:44:24;;;;;;;13.00;6.57;;;;;;;18.07;64.21;102181.97;7395732;19;20014;-55
2023/06/06 08:46:53;;;;;;;12.98;5.95;;;;;;;18.12;64.42;102177.06;7395286;19;20078;-57
2023/06/06 08:49:21;;;;;;;11.45;5.93;;;;;;;18.21;64.19;102180.81;7393175;19;20115;-61
2023/06/06 08:51:51;;;;;;;17.55;6.85;;;;;;;18.23;63.75;102173.50;7392224;19;20047;-60
2023/06/06 08:54:19;;;;;;;15.18;6.13;;;;;;;18.26;63.71;102174.09;7392358;19;20014;-60
2023/06/06 08:56:47;;;;;;;13.23;5.30;;;;;;;18.28;63.40;102171.28;7394785;19;20029;-58
2023/06/06 08:59:16;;;;;;;12.02;5.50;;;;;;;18.33;63.52;102173.59;7394900;19;20064;-58
2023/06/06 09:01:44;;;;;;;12.82;6.47;;;;;;;18.43;63.30;102174.50;7394214;19;20019;-58
2023/06/06 09:04:15;;;;;;;11.55;5.45;;;;;;;18.54;62.85;102170.91;7392471;19;20055;-58
2023/06/06 09:06:46;;;;;;;13.00;5.80;;;;;;;18.55;62.70;102173.47;7394796;19;20077;-60
2023/06/06 09:09:14;;;;;;;11.13;5.93;;;;;;;18.54;62.91;102176.28;7394841;19;20035;-63
2023/06/06 09:11:41;;;;;;;10.27;5.55;;;;;;;18.68;62.35;102174.13;7393569;19;20051;-62
2023/06/06 09:14:09;;;;;;;10.75;5.13;;;;;;;18.71;61.85;102173.06;7392079;19;20014;-62
2023/06/06 09:16:39;;;;;;;14.18;5.03;;;;;;;18.69;61.78;102167.75;7392531;19;20018;-62
2023/06/06 09:19:08;;;;;;;11.15;5.22;;;;;;;18.78;61.68;102165.34;7392495;19;20159;-63
2023/06/06 09:21:36;;;;;;;9.63;4.88;;;;;;;18.79;61.64;102170.56;7393480;19;20029;-64
2023/06/06 09:24:04;;;;;;;11.27;4.53;;;;;;;18.83;61.21;102163.94;7391748;19;20026;-64
2023/06/06 09:26:34;;;;;;;13.32;4.97;;;;;;;18.92;60.47;102164.97;7394298;19;20011;-63
2023/06/06 09:29:07;;;;;;;11.98;5.03;;;;;;;18.97;60.55;102168.13;7394391;19;20047;-63
2023/06/06 09:31:38;;;;;;;;;;;;;;;18.91;60.08;102163.28;7394077;19;20019;-63
2023/06/06 09:34:10;;;;;;;10.18;4.75;;;;;;;18.95;60.54;102162.03;7391224;19;19939;-64
2023/06/06 09:36:41;;;;;;;10.98;4.75;;;;;;;19.06;60.07;102166.47;7394129;19;20015;-63
2023/06/06 09:39:13;;;;;;;10.13;4.55;;;;;;;19.05;59.92;102160.25;7393191;19;20025;-64
2023/06/06 09:41:42;;;;;;;10.40;4.07;;;;;;;19.05;59.50;102164.78;7393136;19;20026;-64
2023/06/06 09:44:41;;;;;;;9.82;4.07;;;;;;;19.18;58.57;102165.38;7391148;19;20015;-63
2023/06/06 09:47:08;;;;;;;11.65;4.40;;;;;;;19.27;58.64;102156.53;7393020;19;20017;-64
2023/06/06 09:49:36;;;;;;;21.38;5.70;;;;;;;19.38;58.58;102150.19;7393121;19;20093;-63
2023/06/06 09:52:05;;;;;;;14.05;4.80;;;;;;;19.41;58.64;102163.34;7392660;19;20018;-62
2023/06/06 09:54:33;;;;;;;9.32;4.07;;;;;;;19.45;58.63;102159.41;7389528;19;20015;-62
2023/06/06 09:57:06;;;;;;;22.80;4.72;;;;;;;19.52;57.79;102162.41;7393525;19;20034;-62
2023/06/06 09:59:33;;;;;;;10.60;3.80;;;;;;;19.52;57.09;102157.03;7392767;19;20018;-61
2023/06/06 10:02:05;;;;;;;11.93;3.45;;;;;;;19.56;56.21;102151.25;7392341;19;20263;-61
2023/06/06 10:04:33;;;;;;;9.38;4.05;;;;;;;19.58;56.12;102148.44;7392432;19;20015;-62
2023/06/06 10:07:05;;;;;;;11.98;4.43;;;;;;;19.68;56.81;102157.38;7390981;19;20015;-61
2023/06/06 10:09:33;;;;;;;9.88;3.47;;;;;;;19.66;57.06;102157.53;7392486;19;20555;-61
2023/06/06 10:12:01;;;;;;;10.55;4.30;;;;;;;19.73;57.17;102155.16;7391063;19;20014;-62
2023/06/06 10:14:30;;;;;;;9.68;3.40;;;;;;;19.83;55.85;102152.47;7389593;19;20029;-61
2023/06/06 10:16:59;;;;;;;9.60;3.25;;;;;;;19.90;54.16;102159.00;7390727;19;20097;-61
2023/06/06 10:19:26;;;;;;;7.78;3.38;;;;;;;19.90;54.21;102156.28;7392423;19;20418;-60
2023/06/06 10:21:55;;;;;;;9.77;3.78;;;;;;;19.90;54.78;102156.28;7390784;19;20019;-61
2023/06/06 10:24:23;;;;;;;9.07;3.80;;;;;;;19.98;54.65;102142.16;7392129;19;20042;-61
2023/06/06 10:27:18;;;;;;;8.68;3.50;;;;;;;20.13;54.41;102157.72;7392063;19;20025;-61
2023/06/06 10:30:01;;;;;;;10.73;3.92;;;;;;;20.10;53.76;102149.94;7390595;19;20018;-60
2023/06/06 10:32:50;;;;;;;9.50;3.65;;;;;;;20.02;54.33;102147.09;7389035;19;20022;-62
2023/06/06 10:35:19;;;;;;;8.25;3.60;;;;;;;20.06;54.48;102144.97;7391981;19;20085;-62
2023/06/06 10:38:09;;;;;;;6.97;3.08;;;;;;;20.21;53.31;102143.56;7389986;19;20073;-61
2023/06/06 10:40:50;;;;;;;11.27;3.70;;;;;;;20.30;52.91;102144.53;7389462;19;20023;-61
2023/06/06 10:43:42;;;;;;;6.20;2.80;;;;;;;20.34;52.36;102137.91;7390315;19;20018;-62
2023/06/06 10:46:10;;;;;;;10.85;3.70;;;;;;;20.35;52.72;102136.91;7391145;19;20018;-61
2023/06/06 10:48:56;;;;;;;8.07;3.60;;;;;;;20.42;52.59;102140.75;7391065;19;20046;-61
2023/06/06 10:51:23;;;;;;;9.18;3.50;;;;;;;20.39;53.56;102130.25;7389696;19;20018;-61
2023/06/06 10:54:22;;;;;;;12.90;3.88;;;;;;;20.46;53.09;102142.16;7389699;19;20057;-61
2023/06/06 10:56:54;;;;;;;10.70;3.53;;;;;;;20.36;52.68;102122.47;7391418;19;20015;-61
2023/06/06 10:59:24;;;;;;;12.27;3.25;;;;;;;20.44;52.47;102119.91;7392741;19;20021;-61
2023/06/06 11:01:52;;;;;;;9.18;3.15;;;;;;;20.50;51.55;102119.38;7390438;19;20018;-62
2023/06/06 11:04:25;;;;;;;6.93;2.80;;;;;;;20.62;51.31;102112.81;7390814;19;20041;-62
2023/06/06 11:06:58;;;;;;;12.15;3.60;;;;;;;20.59;51.32;102123.88;7390733;19;20519;-61
2023/06/06 11:09:29;;;;;;;9.48;3.22;;;;;;;20.62;51.70;102111.97;7390069;19;20033;-61
2023/06/06 11:12:15;;;;;;;18.02;4.22;;;;;;;20.66;51.26;102116.91;7388625;19;20024;-61
2023/06/06 11:14:56;;;;;;;10.68;3.13;;;;;;;20.69;50.84;102122.00;7387557;19;20022;-61
2023/06/06 11:17:46;;;;;;;10.15;3.47;;;;;;;20.87;50.98;102122.09;7388889;19;20021;-61
2023/06/06 11:20:22;;;;;;;9.05;3.30;;;;;;;20.79;51.01;102123.81;7388637;19;20045;-60
2023/06/06 11:23:05;;;;;;;5.13;2.83;;;;;;;20.75;51.25;102111.63;7387558;19;20021;-61
2023/06/06 11:25:35;;;;;;;8.00;3.13;;;;;;;20.78;51.10;102114.88;7388652;19;20015;-60
2023/06/06 11:28:03;;;;;;;6.35;3.17;;;;;;;20.87;50.71;102113.16;7390715;19;20031;-61
2023/06/06 11:30:35;;;;;;;5.97;2.97;;;;;;;20.90;50.36;102108.31;7387942;19;20015;-61